Time;durP1;ratioP1;P1;durP2;ratioP2;P2;SDS_P1;SDS_P2;PMS_P1;PMS_P2;Temp;Humidity;BMP_temperature;BMP_pressure;BME280_temperature;BME280_humidity;BME280_pressure;Samples;Min_cycle;Max_cycle;Signal;HPM_P1;HPM_P2
2022/07/13 00:02:07;;;;;;;2.58;0.20;;;15.70;79.10;;;;;;5072549;28;20348;-92
2022/07/13 00:04:33;;;;;;;;;;;15.60;80.20;;;;;;5075576;28;20472;-91
2022/07/13 00:06:59;;;;;;;0.10;0.10;;;15.60;80.30;;;;;;5075223;28;20326;-92
2022/07/13 00:09:24;;;;;;;;;;;15.50;80.80;;;;;;5063965;28;20035;-93
2022/07/13 00:11:50;;;;;;;0.85;0.30;;;15.50;81.50;;;;;;5072845;28;19910;-92
2022/07/13 00:14:16;;;;;;;;;;;15.50;81.30;;;;;;5055355;28;20128;-93
2022/07/13 00:16:41;;;;;;;0.90;0.20;;;15.50;81.70;;;;;;5060001;28;19956;-92
2022/07/13 00:19:07;;;;;;;1.25;0.30;;;15.40;82.00;;;;;;5092654;28;20031;-93
2022/07/13 00:21:33;;;;;;;;;;;15.50;82.20;;;;;;5090737;28;20174;-92
2022/07/13 00:23:59;;;;;;;0.68;0.30;;;15.40;82.40;;;;;;5054562;28;19954;-93
2022/07/13 00:26:24;;;;;;;3.13;0.20;;;15.50;82.50;;;;;;5054750;28;20039;-92
2022/07/13 00:28:50;;;;;;;;;;;15.50;82.90;;;;;;5055128;28;20060;-93
2022/07/13 00:31:16;;;;;;;2.15;0.30;;;15.50;83.20;;;;;;5055235;28;19937;-92
2022/07/13 00:33:41;;;;;;;;;;;15.50;83.30;;;;;;5054444;28;20021;-92
2022/07/13 00:36:07;;;;;;;3.63;0.30;;;15.50;83.90;;;;;;5052130;28;19911;-92
2022/07/13 00:38:34;;;;;;;;;;;15.50;84.20;;;;;;5052863;28;20056;-93
2022/07/13 00:41:00;;;;;;;0.32;0.20;;;15.60;84.40;;;;;;5051782;28;19923;-93
2022/07/13 00:43:25;;;;;;;0.85;0.20;;;15.50;84.60;;;;;;5072808;28;20024;-93
2022/07/13 00:45:51;;;;;;;;;;;15.60;85.00;;;;;;5055339;28;20400;-93
2022/07/13 00:48:17;;;;;;;1.17;0.30;;;15.50;86.10;;;;;;5054189;28;19958;-92
2022/07/13 00:50:43;;;;;;;1.10;0.20;;;15.50;86.50;;;;;;5054499;28;20082;-93
2022/07/13 00:53:09;;;;;;;;;;;15.50;87.00;;;;;;5054080;28;20029;-92
2022/07/13 00:55:35;;;;;;;1.52;0.30;;;15.50;88.20;;;;;;5054288;28;20284;-93
2022/07/13 00:58:00;;;;;;;;;;;15.40;88.60;;;;;;5055112;28;20489;-93
2022/07/13 01:00:26;;;;;;;0.47;0.20;;;15.30;89.60;;;;;;5054134;28;19916;-93
2022/07/13 01:02:51;;;;;;;;;;;15.30;89.80;;;;;;5055149;28;20479;-94
2022/07/13 01:05:17;;;;;;;1.77;0.30;;;15.40;90.10;;;;;;5054223;28;19996;-93
2022/07/13 01:07:43;;;;;;;;;;;15.50;90.00;;;;;;5054363;28;20163;-93
2022/07/13 01:10:11;;;;;;;0.70;0.20;;;15.70;89.50;;;;;;5071771;28;20372;-92
2022/07/13 01:12:38;;;;;;;1.80;0.30;;;15.90;88.90;;;;;;5053788;28;20032;-94
2022/07/13 01:15:05;;;;;;;1.52;0.30;;;16.00;88.10;;;;;;5053854;28;20033;-91
2022/07/13 01:17:32;;;;;;;0.47;0.25;;;16.30;87.50;;;;;;5054057;28;20676;-92
2022/07/13 01:19:58;;;;;;;1.63;0.28;;;16.50;86.30;;;;;;5053644;28;20036;-95
2022/07/13 01:22:49;;;;;;;0.50;0.30;;;16.70;85.30;;;;;;5053499;28;20507;-93
2022/07/13 01:25:15;;;;;;;4.95;0.30;;;16.90;84.80;;;;;;5053320;28;20024;-93
2022/07/13 01:27:42;;;;;;;1.80;0.30;;;17.10;83.30;;;;;;5053803;28;20028;-94
2022/07/13 01:30:08;;;;;;;0.98;0.20;;;17.30;82.30;;;;;;5039558;28;20049;-94
2022/07/13 01:32:48;;;;;;;2.65;0.20;;;17.40;81.50;;;;;;5034075;28;20426;-92
2022/07/13 01:35:15;;;;;;;2.22;0.30;;;17.50;80.90;;;;;;5033903;28;20119;-94
2022/07/13 01:37:42;;;;;;;3.70;0.30;;;17.60;80.50;;;;;;5033294;28;20029;-92
2022/07/13 01:40:09;;;;;;;0.57;0.20;;;17.70;79.90;;;;;;5033707;28;20452;-93
2022/07/13 01:42:46;;;;;;;1.17;0.30;;;17.70;79.50;;;;;;5034122;28;20535;-92
2022/07/13 01:45:14;;;;;;;4.82;0.30;;;17.70;79.10;;;;;;5045646;28;20029;-92
2022/07/13 01:47:42;;;;;;;3.70;0.50;;;17.80;78.80;;;;;;5036495;28;20021;-93
2022/07/13 01:50:09;;;;;;;1.85;1.00;;;17.80;78.60;;;;;;5033335;28;20505;-92
2022/07/13 01:52:37;;;;;;;2.53;0.30;;;17.90;78.30;;;;;;5033775;28;20025;-92
2022/07/13 01:55:05;;;;;;;1.38;0.30;;;17.80;78.20;;;;;;5034479;28;20033;-93
2022/07/13 01:57:31;;;;;;;1.70;0.20;;;17.90;78.00;;;;;;5034190;28;20163;-93
2022/07/13 02:00:03;;;;;;;1.92;0.30;;;17.90;77.70;;;;;;5033127;28;20033;-94
2022/07/13 02:02:29;;;;;;;1.98;0.22;;;18.00;77.50;;;;;;5034323;28;20393;-93
2022/07/13 02:04:54;;;;;;;3.30;0.30;;;18.00;77.30;;;;;;5035595;28;20029;-93
2022/07/13 02:07:21;;;;;;;0.50;0.30;;;18.00;77.90;;;;;;5034106;28;20408;-94
2022/07/13 02:09:48;;;;;;;1.20;0.30;;;18.00;77.00;;;;;;5035187;28;20029;-92
2022/07/13 02:12:14;;;;;;;2.35;0.30;;;18.00;77.00;;;;;;5037037;28;20083;-92
2022/07/13 02:14:40;;;;;;;0.75;0.40;;;17.90;76.90;;;;;;5038069;28;20029;-93
2022/07/13 02:17:05;;;;;;;3.40;0.22;;;17.90;76.90;;;;;;5039501;28;20032;-93
2022/07/13 02:19:31;;;;;;;2.33;0.30;;;17.90;76.80;;;;;;5036083;28;20032;-93
2022/07/13 02:21:57;;;;;;;1.42;0.30;;;17.90;76.90;;;;;;5041621;28;20064;-93
2022/07/13 02:24:22;;;;;;;2.28;0.68;;;17.90;76.90;;;;;;5050828;28;20029;-92
2022/07/13 02:26:49;;;;;;;2.72;0.30;;;17.90;77.00;;;;;;5054870;28;20005;-91
2022/07/13 02:29:14;;;;;;;3.47;0.77;;;17.80;76.90;;;;;;5080816;28;20043;-91
2022/07/13 02:31:40;;;;;;;0.60;0.20;;;17.80;77.10;;;;;;5077070;28;20035;-92
2022/07/13 02:34:05;;;;;;;0.80;0.30;;;17.80;77.80;;;;;;5077103;28;20051;-93
2022/07/13 02:36:31;;;;;;;1.88;0.40;;;17.80;77.20;;;;;;5072955;28;20035;-92
2022/07/13 02:38:57;;;;;;;0.88;0.30;;;17.70;77.20;;;;;;5056886;28;20021;-93
2022/07/13 02:41:22;;;;;;;1.23;0.28;;;17.80;77.30;;;;;;5056881;28;20565;-93
2022/07/13 02:43:48;;;;;;;2.95;0.20;;;17.80;77.10;;;;;;5057186;28;20032;-95
2022/07/13 02:46:14;;;;;;;1.50;0.55;;;17.70;77.00;;;;;;5056847;28;20381;-93
2022/07/13 02:48:42;;;;;;;0.55;0.20;;;17.70;77.00;;;;;;5061657;28;20020;-93
2022/07/13 02:51:08;;;;;;;1.67;0.65;;;17.70;77.00;;;;;;5076178;28;20119;-92
2022/07/13 02:53:33;;;;;;;0.80;0.30;;;17.70;77.10;;;;;;5077212;28;20449;-92
2022/07/13 02:55:59;;;;;;;3.35;0.80;;;17.70;77.10;;;;;;5076794;28;20039;-92
2022/07/13 02:58:25;;;;;;;1.23;0.20;;;17.70;77.10;;;;;;5056730;28;20036;-93
2022/07/13 03:00:51;;;;;;;0.63;0.20;;;17.70;77.00;;;;;;5056607;28;20037;-92
2022/07/13 03:03:16;;;;;;;2.78;0.32;;;17.70;76.90;;;;;;5056978;28;20031;-91
2022/07/13 03:05:42;;;;;;;;;;;17.70;76.70;;;;;;5056135;28;20028;-90
2022/07/13 03:08:08;;;;;;;0.80;0.20;;;17.70;76.70;;;;;;5057765;28;20006;-94
2022/07/13 03:10:34;;;;;;;1.65;0.45;;;17.70;76.60;;;;;;5056775;28;20029;-93
2022/07/13 03:12:59;;;;;;;2.50;0.50;;;17.70;76.60;;;;;;5055667;28;20024;-93
2022/07/13 03:15:25;;;;;;;3.40;0.38;;;17.70;76.50;;;;;;5074208;28;20023;-93
2022/07/13 03:17:51;;;;;;;8.07;0.40;;;17.80;76.40;;;;;;5055893;28;20032;-93
2022/07/13 03:20:16;;;;;;;1.48;0.28;;;17.80;76.20;;;;;;5056188;28;20056;-91
2022/07/13 03:22:42;;;;;;;1.58;0.30;;;17.80;76.10;;;;;;5055078;28;20443;-93
2022/07/13 03:25:08;;;;;;;1.25;0.30;;;17.90;76.00;;;;;;5055909;28;20021;-94
2022/07/13 03:27:34;;;;;;;1.00;0.20;;;17.90;76.00;;;;;;5055479;28;20039;-92
2022/07/13 03:30:00;;;;;;;2.70;0.35;;;17.90;75.90;;;;;;5071705;28;20052;-94
2022/07/13 03:32:25;;;;;;;0.85;0.25;;;17.90;76.10;;;;;;5076452;28;20100;-91
2022/07/13 03:34:51;;;;;;;3.53;0.30;;;17.80;76.60;;;;;;5077565;28;20048;-94
2022/07/13 03:37:16;;;;;;;1.33;0.32;;;17.70;77.30;;;;;;5074734;28;20434;-92
2022/07/13 03:39:42;;;;;;;0.55;0.30;;;17.60;77.90;;;;;;5094961;28;20032;-92
2022/07/13 03:42:08;;;;;;;3.17;0.30;;;17.50;78.30;;;;;;5076026;28;20035;-93
2022/07/13 03:44:33;;;;;;;0.98;0.30;;;17.40;78.60;;;;;;5081646;28;20464;-93
2022/07/13 03:47:00;;;;;;;3.03;0.28;;;17.30;78.80;;;;;;5059656;28;20119;-93
2022/07/13 03:49:26;;;;;;;0.40;0.20;;;17.40;78.80;;;;;;5074215;28;20066;-93
2022/07/13 03:51:52;;;;;;;4.43;0.30;;;17.40;78.60;;;;;;5059716;28;20036;-91
2022/07/13 03:54:18;;;;;;;5.93;0.30;;;17.50;78.80;;;;;;5056258;28;20024;-91
2022/07/13 03:56:43;;;;;;;0.50;0.30;;;17.50;78.80;;;;;;5056039;28;20032;-89
2022/07/13 03:59:09;;;;;;;2.30;0.32;;;17.60;79.00;;;;;;5054410;28;20021;-90
2022/07/13 04:01:35;;;;;;;0.95;0.30;;;17.60;79.10;;;;;;5055661;28;20102;-89
2022/07/13 04:04:01;;;;;;;5.60;0.30;;;17.60;79.70;;;;;;5055166;28;20600;-90
2022/07/13 04:06:26;;;;;;;1.20;0.32;;;17.70;78.90;;;;;;5054491;28;20025;-91
2022/07/13 04:08:52;;;;;;;1.55;0.40;;;17.90;78.60;;;;;;5054982;28;20270;-91
2022/07/13 04:11:18;;;;;;;2.50;0.20;;;18.40;77.80;;;;;;5055048;28;20055;-89
2022/07/13 04:13:44;;;;;;;3.15;0.43;;;19.10;75.70;;;;;;5055063;28;20499;-91
2022/07/13 04:16:09;;;;;;;3.50;0.40;;;19.70;73.40;;;;;;5056151;28;20615;-90
2022/07/13 04:18:35;;;;;;;1.10;0.30;;;19.80;72.60;;;;;;5055252;28;20109;-90
2022/07/13 04:21:01;;;;;;;1.83;0.30;;;19.80;72.10;;;;;;5054629;28;20032;-91
2022/07/13 04:23:30;;;;;;;0.68;0.30;;;19.70;72.70;;;;;;5053954;28;20032;-91
2022/07/13 04:25:57;;;;;;;2.55;0.30;;;19.60;72.90;;;;;;5055221;28;20087;-91
2022/07/13 04:28:23;;;;;;;3.40;0.40;;;19.60;72.80;;;;;;5071922;28;20029;-92
2022/07/13 04:30:50;;;;;;;2.50;0.30;;;19.50;73.30;;;;;;5054914;28;20082;-91
2022/07/13 04:33:15;;;;;;;7.00;0.50;;;19.50;73.70;;;;;;5054592;28;20040;-91
2022/07/13 04:35:41;;;;;;;0.88;0.20;;;19.60;73.60;;;;;;5053450;28;20500;-90
2022/07/13 04:38:07;;;;;;;3.10;0.30;;;19.60;73.30;;;;;;5054190;28;20031;-92
2022/07/13 04:40:32;;;;;;;2.53;0.30;;;19.70;73.40;;;;;;5054664;28;20496;-90
2022/07/13 04:42:58;;;;;;;2.00;0.30;;;19.80;73.20;;;;;;5054613;28;20025;-91
2022/07/13 04:45:23;;;;;;;1.25;0.32;;;19.80;73.20;;;;;;5064919;28;20028;-92
2022/07/13 04:47:49;;;;;;;1.48;0.38;;;19.90;73.10;;;;;;5074257;28;20028;-91
2022/07/13 04:50:16;;;;;;;3.88;0.55;;;19.90;73.00;;;;;;5073982;28;20045;-90
2022/07/13 04:52:42;;;;;;;3.85;0.20;;;20.00;72.40;;;;;;5074732;28;20039;-91
2022/07/13 04:55:09;;;;;;;3.90;0.30;;;20.00;72.20;;;;;;5059906;28;20032;-91
2022/07/13 04:57:36;;;;;;;0.40;0.20;;;20.10;71.80;;;;;;5071567;28;20116;-91
2022/07/13 05:00:03;;;;;;;2.03;0.28;;;20.20;71.30;;;;;;5052105;28;20127;-91
2022/07/13 05:02:28;;;;;;;1.63;0.38;;;20.40;71.10;;;;;;5054220;28;20036;-91
2022/07/13 05:04:54;;;;;;;1.75;0.20;;;20.50;70.60;;;;;;5053784;28;20032;-92
2022/07/13 05:07:19;;;;;;;2.60;0.65;;;20.60;70.60;;;;;;5054484;28;20025;-92
2022/07/13 05:09:46;;;;;;;2.47;0.30;;;20.80;69.50;;;;;;5054046;28;20480;-92
2022/07/13 05:12:12;;;;;;;1.90;0.30;;;20.90;69.30;;;;;;5053172;28;20029;-92
2022/07/13 05:14:37;;;;;;;1.05;0.30;;;21.00;69.20;;;;;;5054138;28;20035;-91
2022/07/13 05:17:03;;;;;;;3.90;0.47;;;21.20;68.40;;;;;;5053583;28;20032;-91
2022/07/13 05:19:29;;;;;;;3.95;1.38;;;21.40;67.50;;;;;;5049168;28;20124;-91
2022/07/13 05:21:54;;;;;;;1.48;0.38;;;21.50;65.90;;;;;;5049279;28;20044;-90
2022/07/13 05:24:20;;;;;;;4.28;0.50;;;21.70;65.40;;;;;;5053494;28;20021;-87
2022/07/13 05:26:55;;;;;;;12.73;0.70;;;22.00;65.20;;;;;;5059885;28;20117;-93
2022/07/13 05:29:22;;;;;;;9.77;0.60;;;22.10;64.60;;;;;;5056454;28;20114;-91
2022/07/13 05:31:48;;;;;;;3.58;0.40;;;22.20;64.20;;;;;;5054040;28;20021;-90
2022/07/13 05:34:14;;;;;;;2.08;0.52;;;22.30;64.10;;;;;;5072285;28;20036;-91
2022/07/13 05:36:40;;;;;;;2.53;0.63;;;22.40;64.10;;;;;;5071406;28;20021;-90
2022/07/13 05:39:05;;;;;;;3.00;0.60;;;22.60;63.10;;;;;;5052166;28;20033;-91
2022/07/13 05:41:32;;;;;;;0.85;0.47;;;22.60;62.90;;;;;;5054771;28;20029;-89
2022/07/13 05:43:59;;;;;;;6.90;0.52;;;22.80;62.50;;;;;;5064676;28;20029;-89
2022/07/13 05:46:26;;;;;;;5.25;0.70;;;22.90;61.00;;;;;;5059010;28;20031;-90
2022/07/13 05:48:51;;;;;;;1.33;0.38;;;23.00;60.30;;;;;;5058092;28;20036;-89
2022/07/13 05:51:17;;;;;;;12.60;1.10;;;23.30;59.60;;;;;;5058148;28;20428;-90
2022/07/13 05:53:43;;;;;;;4.18;0.60;;;23.80;58.10;;;;;;5058166;28;20512;-90
2022/07/13 05:56:09;;;;;;;3.80;0.50;;;24.10;57.20;;;;;;5063407;28;20039;-91
2022/07/13 05:58:35;;;;;;;2.40;0.70;;;24.60;56.10;;;;;;5078778;28;20031;-91
2022/07/13 06:01:01;;;;;;;4.25;0.70;;;25.50;54.80;;;;;;5078263;28;20096;-92
2022/07/13 06:03:26;;;;;;;4.70;0.65;;;26.40;53.00;;;;;;5059267;28;20033;-90
2022/07/13 06:05:52;;;;;;;3.72;0.45;;;27.60;49.60;;;;;;5058381;28;20047;-90
2022/07/13 06:08:18;;;;;;;2.13;0.50;;;29.00;46.20;;;;;;5075451;28;20477;-89
2022/07/13 06:10:44;;;;;;;1.80;0.50;;;30.10;44.00;;;;;;5075510;28;20029;-90
2022/07/13 06:13:09;;;;;;;2.17;0.52;;;31.30;41.70;;;;;;5057192;28;20029;-90
2022/07/13 06:15:35;;;;;;;2.08;0.50;;;32.30;39.60;;;;;;5075248;28;20036;-91
2022/07/13 06:18:00;;;;;;;6.63;0.40;;;33.30;37.10;;;;;;5056972;28;20025;-91
2022/07/13 06:20:26;;;;;;;2.78;0.50;;;34.00;34.80;;;;;;5057350;28;20503;-89
2022/07/13 06:23:10;;;;;;;1.50;0.60;;;34.20;33.80;;;;;;5052751;28;20032;-88
2022/07/13 06:25:40;;;;;;;7.10;0.93;;;34.70;32.50;;;;;;5057966;28;20024;-88
2022/07/13 06:28:06;;;;;;;1.63;0.50;;;35.20;31.50;;;;;;5056272;28;20043;-89
2022/07/13 06:30:33;;;;;;;1.33;0.60;;;35.10;30.70;;;;;;5056893;28;20067;-89
2022/07/13 06:32:59;;;;;;;2.30;0.70;;;35.70;31.10;;;;;;5055739;28;20036;-88
2022/07/13 06:35:25;;;;;;;4.95;0.70;;;36.10;29.80;;;;;;5053768;28;20197;-88
2022/07/13 06:37:50;;;;;;;2.28;0.60;;;36.30;30.10;;;;;;5055290;28;20458;-90
2022/07/13 06:40:16;;;;;;;1.15;0.50;;;36.80;29.10;;;;;;5056036;28;20044;-89
2022/07/13 06:42:43;;;;;;;1.23;0.50;;;36.60;28.20;;;;;;5057213;28;20025;-89
2022/07/13 06:45:09;;;;;;;1.85;0.50;;;36.70;28.50;;;;;;5073914;28;20492;-88
2022/07/13 06:47:35;;;;;;;1.98;0.50;;;36.60;28.00;;;;;;5056303;28;20032;-89
2022/07/13 06:50:00;;;;;;;1.30;0.45;;;36.90;28.00;;;;;;5056030;28;20025;-88
2022/07/13 06:52:26;;;;;;;5.22;0.43;;;37.20;27.40;;;;;;5056147;28;20032;-88
2022/07/13 06:54:52;;;;;;;1.98;0.60;;;37.10;27.30;;;;;;5056441;28;20016;-89
2022/07/13 06:57:18;;;;;;;2.05;0.60;;;36.90;27.10;;;;;;5055458;28;20025;-88
2022/07/13 06:59:43;;;;;;;4.95;0.50;;;36.50;27.50;;;;;;5055958;28;20024;-90
2022/07/13 07:02:09;;;;;;;0.68;0.50;;;36.30;28.00;;;;;;5056015;28;20024;-88
2022/07/13 07:04:35;;;;;;;1.17;0.50;;;36.10;27.70;;;;;;5056063;28;20067;-87
2022/07/13 07:07:01;;;;;;;1.55;0.52;;;36.20;27.70;;;;;;5056068;28;20473;-90
2022/07/13 07:09:27;;;;;;;2.00;0.63;;;35.80;27.60;;;;;;5055955;28;20032;-89
2022/07/13 07:11:53;;;;;;;2.90;0.40;;;35.80;27.90;;;;;;5055853;28;20029;-88
2022/07/13 07:14:18;;;;;;;8.18;0.55;;;35.80;27.90;;;;;;5055304;28;20024;-89
2022/07/13 07:16:44;;;;;;;6.07;0.70;;;35.90;27.70;;;;;;5054871;28;20044;-88
2022/07/13 07:19:10;;;;;;;2.67;0.50;;;35.60;27.50;;;;;;5053039;28;20034;-89
2022/07/13 07:21:37;;;;;;;9.07;0.45;;;35.80;27.80;;;;;;5068386;28;20491;-87
2022/07/13 07:24:03;;;;;;;1.85;0.40;;;35.80;28.00;;;;;;5075992;28;20028;-88
2022/07/13 07:26:30;;;;;;;1.35;0.50;;;36.00;28.00;;;;;;5075840;28;20086;-88
2022/07/13 07:28:56;;;;;;;0.95;0.40;;;35.90;27.80;;;;;;5067732;28;20041;-87
2022/07/13 07:31:22;;;;;;;1.58;0.47;;;36.20;27.80;;;;;;5055380;28;20477;-87
2022/07/13 07:33:48;;;;;;;3.45;0.40;;;36.20;27.90;;;;;;5073056;28;20025;-89
2022/07/13 07:36:15;;;;;;;5.03;0.60;;;36.20;27.60;;;;;;5054998;28;20090;-88
2022/07/13 07:38:41;;;;;;;2.08;0.50;;;36.10;27.70;;;;;;5055418;28;20543;-89
2022/07/13 07:41:07;;;;;;;1.60;0.40;;;35.80;27.70;;;;;;5054617;28;20044;-87
2022/07/13 07:43:32;;;;;;;6.60;0.40;;;35.90;27.90;;;;;;5066202;28;20063;-88
2022/07/13 07:45:58;;;;;;;1.55;0.40;;;36.10;28.10;;;;;;5072462;28;20046;-89
2022/07/13 07:48:25;;;;;;;2.83;0.70;;;36.00;28.30;;;;;;5093061;28;20077;-89
2022/07/13 07:50:50;;;;;;;4.05;0.40;;;35.90;27.90;;;;;;5075212;28;20032;-89
2022/07/13 07:53:16;;;;;;;0.57;0.30;;;35.80;27.80;;;;;;5064854;28;20016;-89
2022/07/13 07:55:42;;;;;;;0.38;0.30;;;36.00;27.90;;;;;;5054681;28;20028;-87
2022/07/13 07:58:08;;;;;;;4.75;0.40;;;35.80;27.40;;;;;;5054549;28;20078;-90
2022/07/13 08:00:34;;;;;;;1.40;0.50;;;35.60;27.70;;;;;;5077046;28;20035;-89
2022/07/13 08:03:03;;;;;;;1.52;0.70;;;35.50;27.80;;;;;;5092674;28;20027;-89
2022/07/13 08:05:30;;;;;;;5.22;0.50;;;35.50;27.80;;;;;;5074863;28;20035;-88
2022/07/13 08:07:56;;;;;;;1.65;0.57;;;35.60;27.80;;;;;;5074857;28;20025;-88
2022/07/13 08:10:21;;;;;;;1.33;0.40;;;35.60;27.80;;;;;;5054118;28;20043;-88
2022/07/13 08:12:47;;;;;;;1.85;0.40;;;35.60;27.90;;;;;;5054273;28;20564;-89
2022/07/13 08:15:13;;;;;;;1.88;0.40;;;35.80;27.70;;;;;;5054778;28;20093;-89
2022/07/13 08:17:39;;;;;;;2.47;0.57;;;35.50;27.30;;;;;;5054850;28;20082;-89
2022/07/13 08:20:07;;;;;;;2.90;0.63;;;35.60;27.50;;;;;;5054099;28;20047;-89
2022/07/13 08:22:32;;;;;;;2.25;0.50;;;35.70;27.20;;;;;;5054536;28;20067;-88
2022/07/13 08:24:58;;;;;;;1.17;0.40;;;35.90;28.20;;;;;;5053955;28;20068;-89
2022/07/13 08:27:26;;;;;;;0.75;0.50;;;35.80;27.40;;;;;;5054342;28;20021;-90
2022/07/13 08:29:51;;;;;;;0.50;0.40;;;36.10;27.70;;;;;;5053990;28;20421;-90
2022/07/13 08:32:17;;;;;;;1.73;0.50;;;36.20;27.40;;;;;;5055818;28;20027;-88
2022/07/13 08:40:11;;;;;;;3.42;0.65;;;35.80;27.30;;;;;;5090933;28;20071;-87
2022/07/13 08:42:38;;;;;;;3.90;0.75;;;35.80;27.40;;;;;;5054219;28;20618;-88
2022/07/13 08:45:05;;;;;;;4.03;0.47;;;35.60;27.50;;;;;;5054488;28;20024;-93
2022/07/13 08:47:31;;;;;;;3.95;0.70;;;35.50;28.00;;;;;;5053821;28;20020;-91
2022/07/13 08:50:07;;;;;;;1.48;0.40;;;35.70;28.20;;;;;;5054146;28;20100;-92
2022/07/13 08:52:39;;;;;;;0.52;0.40;;;35.90;28.10;;;;;;5071569;28;20039;-92
2022/07/13 08:55:06;;;;;;;3.30;0.55;;;36.20;27.80;;;;;;5054057;28;20048;-87
2022/07/13 08:57:40;;;;;;;6.28;0.50;;;36.40;28.10;;;;;;5050715;28;20513;-89
2022/07/13 09:00:12;;;;;;;6.50;0.68;;;36.30;27.80;;;;;;5071880;28;20412;-88
2022/07/13 09:02:38;;;;;;;1.88;0.55;;;36.10;28.10;;;;;;5053465;28;20082;-90
2022/07/13 09:05:06;;;;;;;2.60;0.50;;;36.10;27.70;;;;;;5054128;28;20024;-92
2022/07/13 09:07:33;;;;;;;3.08;0.50;;;36.10;27.50;;;;;;5054343;28;20021;-91
2022/07/13 09:10:01;;;;;;;4.20;0.50;;;36.00;27.40;;;;;;5053825;28;20024;-94
2022/07/13 09:12:28;;;;;;;3.10;0.50;;;36.10;27.50;;;;;;5053827;28;20032;-94
2022/07/13 09:14:56;;;;;;;5.97;0.77;;;36.20;27.70;;;;;;5053713;28;20087;-91
2022/07/13 09:17:40;;;;;;;1.15;0.40;;;36.50;27.50;;;;;;5053222;28;20024;-89
2022/07/13 09:20:15;;;;;;;4.82;0.60;;;36.60;27.00;;;;;;5052887;28;20059;-87
2022/07/13 09:22:56;;;;;;;0.60;0.40;;;36.60;27.00;;;;;;5052961;28;20020;-91
2022/07/13 09:25:37;;;;;;;2.15;0.40;;;36.50;27.00;;;;;;5053036;28;20029;-89
2022/07/13 09:28:09;;;;;;;1.92;0.43;;;36.40;26.90;;;;;;5071086;28;20158;-87
2022/07/13 09:30:40;;;;;;;1.15;0.50;;;35.80;26.90;;;;;;5070669;28;20040;-88
2022/07/13 09:33:07;;;;;;;3.50;0.52;;;36.10;27.10;;;;;;5056562;28;20049;-89
2022/07/13 09:35:46;;;;;;;6.13;0.43;;;36.50;27.10;;;;;;5056467;28;20024;-89
2022/07/13 09:38:47;;;;;;;1.55;0.55;;;36.80;27.10;;;;;;5052550;28;20027;-90
2022/07/13 09:41:18;;;;;;;0.60;0.40;;;36.90;26.90;;;;;;5057539;28;20024;-87
2022/07/13 09:47:01;;;;;;;2.78;0.85;;;37.00;26.70;;;;;;5051198;28;20036;-90
2022/07/13 09:49:41;;;;;;;1.25;0.50;;;37.00;26.80;;;;;;5033201;28;20062;-87
2022/07/13 09:52:09;;;;;;;1.90;0.50;;;37.00;26.20;;;;;;5051079;28;20047;-90
2022/07/13 09:54:38;;;;;;;0.90;0.50;;;37.00;26.20;;;;;;5053481;28;20024;-90
2022/07/13 09:57:09;;;;;;;0.88;0.50;;;36.70;26.00;;;;;;5061933;28;20534;-90
2022/07/13 09:59:42;;;;;;;0.65;0.50;;;36.70;26.20;;;;;;5054526;28;20120;-90
2022/07/13 10:02:08;;;;;;;0.93;0.50;;;36.50;26.10;;;;;;5054081;28;20032;-95
2022/07/13 10:04:37;;;;;;;9.95;0.80;;;36.60;26.50;;;;;;5054089;28;20059;-88
2022/07/13 10:07:04;;;;;;;5.28;1.00;;;36.50;26.50;;;;;;5053165;28;20029;-90
2022/07/13 10:09:31;;;;;;;1.65;0.52;;;36.30;26.60;;;;;;5053033;28;20051;-92
2022/07/13 10:12:00;;;;;;;0.70;0.50;;;36.00;26.40;;;;;;5053815;28;20024;-91
2022/07/13 10:14:26;;;;;;;1.08;0.50;;;35.10;26.50;;;;;;5053616;28;20089;-90
2022/07/13 10:17:04;;;;;;;1.55;0.47;;;34.60;27.30;;;;;;5053313;28;20039;-91
2022/07/13 10:19:31;;;;;;;1.48;0.40;;;34.50;26.90;;;;;;5053073;28;20527;-89
2022/07/13 10:22:09;;;;;;;5.45;0.70;;;34.00;26.80;;;;;;5072427;28;20056;-91
2022/07/13 10:24:36;;;;;;;1.33;0.50;;;33.50;26.70;;;;;;5053340;28;20112;-92
2022/07/13 10:27:28;;;;;;;1.85;0.57;;;33.40;27.60;;;;;;5057843;28;20025;-91
2022/07/13 10:29:57;;;;;;;0.57;0.35;;;33.20;27.40;;;;;;5055937;28;20051;-92
2022/07/13 10:32:25;;;;;;;0.50;0.30;;;32.80;27.30;;;;;;5053862;28;20042;-89
2022/07/13 10:34:54;;;;;;;2.50;0.50;;;32.70;28.00;;;;;;5058120;28;20021;-91
2022/07/13 10:37:20;;;;;;;2.80;0.70;;;32.40;28.30;;;;;;5066738;28;20058;-89
2022/07/13 10:40:11;;;;;;;1.13;0.50;;;32.30;28.50;;;;;;5077331;28;20547;-94
2022/07/13 10:43:04;;;;;;;0.70;0.40;;;32.10;29.10;;;;;;5078053;28;20032;-95
2022/07/13 10:45:40;;;;;;;10.30;1.15;;;32.00;28.50;;;;;;5060344;28;20036;-94
2022/07/13 10:48:06;;;;;;;2.35;0.60;;;32.00;28.40;;;;;;5061039;28;20035;-91
2022/07/13 10:50:46;;;;;;;7.82;0.50;;;31.90;27.50;;;;;;5057440;28;20031;-93
2022/07/13 10:53:15;;;;;;;1.98;0.30;;;31.60;27.70;;;;;;5056693;28;20039;-92
2022/07/13 10:55:48;;;;;;;0.40;0.32;;;31.40;28.00;;;;;;5057016;28;20112;-91
2022/07/13 10:58:40;;;;;;;3.35;0.40;;;31.40;28.30;;;;;;5056223;28;20025;-92
2022/07/13 11:01:30;;;;;;;4.10;0.50;;;31.20;28.10;;;;;;5052058;28;20044;-91
2022/07/13 11:03:56;;;;;;;0.60;0.40;;;31.10;28.80;;;;;;5057168;28;20032;-92
2022/07/13 11:06:26;;;;;;;0.60;0.38;;;31.10;28.20;;;;;;5075981;28;20113;-91
2022/07/13 11:09:30;;;;;;;0.50;0.30;;;30.90;28.00;;;;;;5077200;28;20066;-93
2022/07/13 11:11:55;;;;;;;4.13;0.50;;;30.80;27.70;;;;;;4976177;28;20026;-89
2022/07/13 11:14:36;;;;;;;1.42;0.47;;;30.70;28.30;;;;;;4957553;28;20085;-88
2022/07/13 11:17:24;;;;;;;1.58;0.40;;;30.70;27.60;;;;;;5012907;28;20037;-89
2022/07/13 11:20:00;;;;;;;3.38;0.40;;;30.60;28.50;;;;;;5057083;28;20048;-89
2022/07/13 11:25:37;;;;;;;4.55;0.40;;;30.70;28.10;;;;;;5074384;28;20051;-95
2022/07/13 11:28:05;;;;;;;1.90;0.45;;;30.80;28.30;;;;;;5056450;28;20056;-88
2022/07/13 11:30:35;;;;;;;3.60;0.40;;;30.80;28.30;;;;;;5055478;28;20046;-89
2022/07/13 11:33:00;;;;;;;0.65;0.30;;;30.80;27.90;;;;;;5055127;28;20127;-89
2022/07/13 11:35:26;;;;;;;3.70;0.47;;;30.90;28.40;;;;;;5055668;28;20111;-89
2022/07/13 11:37:53;;;;;;;3.17;0.38;;;31.00;27.80;;;;;;5055406;28;20488;-85
2022/07/13 11:40:26;;;;;;;0.65;0.40;;;31.10;28.40;;;;;;5056012;28;20036;-83
2022/07/13 11:42:53;;;;;;;1.27;0.22;;;31.00;27.10;;;;;;5058576;28;20025;-87
2022/07/13 11:45:31;;;;;;;0.60;0.30;;;31.00;27.40;;;;;;5055562;28;20064;-89
2022/07/13 11:48:02;;;;;;;0.80;0.30;;;31.10;26.90;;;;;;5055017;28;20024;-88
2022/07/13 11:50:44;;;;;;;2.08;0.40;;;31.10;26.90;;;;;;5056651;28;20025;-92
2022/07/13 11:53:30;;;;;;;2.58;0.40;;;31.20;27.00;;;;;;5074002;28;20114;-87
2022/07/13 11:56:08;;;;;;;1.35;0.38;;;31.20;26.50;;;;;;5055610;28;20031;-95
2022/07/13 11:58:39;;;;;;;1.20;0.43;;;31.20;26.70;;;;;;5056016;28;20028;-95
2022/07/13 12:01:12;;;;;;;2.13;0.43;;;31.20;27.20;;;;;;5057066;28;20028;-95
2022/07/13 12:03:38;;;;;;;1.80;0.30;;;31.20;27.40;;;;;;5056794;28;20101;-95
2022/07/13 12:06:07;;;;;;;2.80;0.38;;;31.20;27.10;;;;;;5073356;28;20056;-93
2022/07/13 12:08:37;;;;;;;2.53;0.40;;;31.40;27.20;;;;;;5039027;28;20028;-92
2022/07/13 12:11:05;;;;;;;1.00;0.40;;;31.40;26.80;;;;;;5057192;28;20024;-96
2022/07/13 12:13:33;;;;;;;1.73;0.57;;;31.50;26.90;;;;;;5057847;28;20024;-94
2022/07/13 12:15:58;;;;;;;3.55;0.73;;;31.60;26.80;;;;;;5059085;28;20013;-95
2022/07/13 12:18:24;;;;;;;2.30;0.50;;;31.60;26.90;;;;;;5058765;28;20111;-95
2022/07/13 12:20:50;;;;;;;0.95;0.40;;;31.70;26.90;;;;;;5056532;28;20123;-95
2022/07/13 12:23:17;;;;;;;1.50;0.47;;;31.70;26.90;;;;;;5056543;28;20033;-96
2022/07/13 12:25:43;;;;;;;1.35;0.40;;;31.80;26.90;;;;;;5056547;28;20025;-96
2022/07/13 12:28:10;;;;;;;12.27;0.60;;;31.80;26.30;;;;;;5056348;28;20358;-93
2022/07/13 12:30:57;;;;;;;0.68;0.30;;;31.80;26.20;;;;;;5056940;28;20048;-94
2022/07/13 12:33:23;;;;;;;0.57;0.30;;;31.70;25.90;;;;;;5055050;28;20067;-95
2022/07/13 12:36:04;;;;;;;0.60;0.30;;;31.60;26.30;;;;;;5055151;28;20028;-93
2022/07/13 12:38:31;;;;;;;0.75;0.40;;;31.60;26.60;;;;;;5058313;28;20025;-94
2022/07/13 12:40:59;;;;;;;0.75;0.40;;;31.70;26.70;;;;;;5056959;28;20060;-94
2022/07/13 12:43:30;;;;;;;5.07;0.50;;;31.70;26.70;;;;;;5058643;28;20508;-94
2022/07/13 12:46:01;;;;;;;3.65;0.50;;;31.60;26.70;;;;;;5058054;28;20021;-93
2022/07/13 12:48:28;;;;;;;0.40;0.30;;;31.60;26.90;;;;;;5060035;28;20098;-95
2022/07/13 12:51:00;;;;;;;1.13;0.43;;;31.60;26.80;;;;;;5058618;28;20032;-95
2022/07/13 12:53:49;;;;;;;0.52;0.30;;;31.70;27.00;;;;;;5056669;28;20114;-94
2022/07/13 12:56:17;;;;;;;2.95;0.40;;;31.70;26.80;;;;;;5053869;28;20447;-93
2022/07/13 12:58:44;;;;;;;0.82;0.40;;;31.70;26.90;;;;;;5054586;28;20114;-93
2022/07/13 13:01:25;;;;;;;3.75;0.40;;;31.80;26.60;;;;;;5053980;28;20028;-94
2022/07/13 13:03:50;;;;;;;0.82;0.35;;;31.70;27.00;;;;;;5080131;28;20017;-93
2022/07/13 13:06:16;;;;;;;3.13;0.43;;;31.70;26.70;;;;;;5092932;28;20059;-96
2022/07/13 13:08:42;;;;;;;3.58;0.40;;;31.70;27.10;;;;;;5073548;28;20028;-95